sensor_id;sensor_type;location;lat;lon;timestamp;temperature;humidity
16136;DHT22;8173;48.354;9.248;2023-02-28T00:00:36;-3.90;99.90
16136;DHT22;8173;48.354;9.248;2023-02-28T00:03:04;-3.90;99.90
16136;DHT22;8173;48.354;9.248;2023-02-28T00:05:30;-3.80;99.90
16136;DHT22;8173;48.354;9.248;2023-02-28T00:07:57;-3.90;99.90
16136;DHT22;8173;48.354;9.248;2023-02-28T00:10:26;-3.80;99.90
16136;DHT22;8173;48.354;9.248;2023-02-28T00:12:54;-3.80;99.90
16136;DHT22;8173;48.354;9.248;2023-02-28T00:15:24;-3.80;99.90
16136;DHT22;8173;48.354;9.248;2023-02-28T00:17:50;-3.70;99.90
16136;DHT22;8173;48.354;9.248;2023-02-28T00:20:17;-3.70;99.90
16136;DHT22;8173;48.354;9.248;2023-02-28T00:22:47;-3.60;99.90
16136;DHT22;8173;48.354;9.248;2023-02-28T00:25:16;-3.60;99.90
16136;DHT22;8173;48.354;9.248;2023-02-28T00:27:44;-3.60;99.90
16136;DHT22;8173;48.354;9.248;2023-02-28T00:30:13;-3.60;99.90
16136;DHT22;8173;48.354;9.248;2023-02-28T00:32:41;-3.60;99.90
16136;DHT22;8173;48.354;9.248;2023-02-28T00:35:09;-3.60;99.90
16136;DHT22;8173;48.354;9.248;2023-02-28T00:37:37;-3.50;99.90
16136;DHT22;8173;48.354;9.248;2023-02-28T00:40:05;-3.60;99.90
16136;DHT22;8173;48.354;9.248;2023-02-28T00:42:32;-3.60;99.90
16136;DHT22;8173;48.354;9.248;2023-02-28T00:44:59;-3.60;99.90
16136;DHT22;8173;48.354;9.248;2023-02-28T00:47:26;-3.60;99.90
16136;DHT22;8173;48.354;9.248;2023-02-28T00:49:54;-3.60;99.90
16136;DHT22;8173;48.354;9.248;2023-02-28T00:52:21;-3.60;99.90
16136;DHT22;8173;48.354;9.248;2023-02-28T00:54:48;-3.60;99.90
16136;DHT22;8173;48.354;9.248;2023-02-28T00:57:14;-3.50;99.90
16136;DHT22;8173;48.354;9.248;2023-02-28T00:59:41;-3.50;99.90
16136;DHT22;8173;48.354;9.248;2023-02-28T01:02:08;-3.50;99.90
16136;DHT22;8173;48.354;9.248;2023-02-28T01:04:35;-3.60;99.90
16136;DHT22;8173;48.354;9.248;2023-02-28T01:07:03;-3.60;99.90
16136;DHT22;8173;48.354;9.248;2023-02-28T01:09:30;-3.60;99.90
16136;DHT22;8173;48.354;9.248;2023-02-28T01:11:56;-3.60;99.90
16136;DHT22;8173;48.354;9.248;2023-02-28T01:14:23;-3.60;99.90
16136;DHT22;8173;48.354;9.248;2023-02-28T01:16:50;-3.60;99.90
16136;DHT22;8173;48.354;9.248;2023-02-28T01:19:17;-3.60;99.90
16136;DHT22;8173;48.354;9.248;2023-02-28T01:21:44;-3.60;99.90
16136;DHT22;8173;48.354;9.248;2023-02-28T01:24:12;-3.60;99.90
16136;DHT22;8173;48.354;9.248;2023-02-28T01:26:38;-3.60;99.90
16136;DHT22;8173;48.354;9.248;2023-02-28T01:29:05;-3.60;99.90
16136;DHT22;8173;48.354;9.248;2023-02-28T01:31:32;-3.50;99.90
16136;DHT22;8173;48.354;9.248;2023-02-28T01:33:59;-3.60;99.90
16136;DHT22;8173;48.354;9.248;2023-02-28T01:36:26;-3.70;99.90
16136;DHT22;8173;48.354;9.248;2023-02-28T01:38:52;-3.70;99.90
16136;DHT22;8173;48.354;9.248;2023-02-28T01:41:22;-3.70;99.90
16136;DHT22;8173;48.354;9.248;2023-02-28T01:43:56;-3.70;99.90
16136;DHT22;8173;48.354;9.248;2023-02-28T01:46:23;-3.60;99.90
16136;DHT22;8173;48.354;9.248;2023-02-28T01:48:53;-3.60;99.90
16136;DHT22;8173;48.354;9.248;2023-02-28T01:51:25;-3.60;99.90
16136;DHT22;8173;48.354;9.248;2023-02-28T01:53:56;-3.60;99.90
16136;DHT22;8173;48.354;9.248;2023-02-28T01:56:29;-3.60;99.90
16136;DHT22;8173;48.354;9.248;2023-02-28T01:58:57;-3.70;99.90
16136;DHT22;8173;48.354;9.248;2023-02-28T02:01:25;-3.70;99.90
16136;DHT22;8173;48.354;9.248;2023-02-28T02:03:55;-3.70;99.90
16136;DHT22;8173;48.354;9.248;2023-02-28T02:06:23;-3.70;99.90
16136;DHT22;8173;48.354;9.248;2023-02-28T02:08:51;-3.70;99.90
16136;DHT22;8173;48.354;9.248;2023-02-28T02:11:20;-3.70;99.90
16136;DHT22;8173;48.354;9.248;2023-02-28T02:14:08;-3.70;99.90
16136;DHT22;8173;48.354;9.248;2023-02-28T02:16:43;-3.80;99.90
16136;DHT22;8173;48.354;9.248;2023-02-28T02:19:30;-3.80;99.90
16136;DHT22;8173;48.354;9.248;2023-02-28T02:22:34;-3.80;99.90
16136;DHT22;8173;48.354;9.248;2023-02-28T02:25:16;-3.70;99.90
16136;DHT22;8173;48.354;9.248;2023-02-28T02:28:05;-3.70;99.90
16136;DHT22;8173;48.354;9.248;2023-02-28T02:30:53;-3.70;99.90
16136;DHT22;8173;48.354;9.248;2023-02-28T02:36:14;-3.70;99.90
16136;DHT22;8173;48.354;9.248;2023-02-28T02:38:48;-3.70;99.90
16136;DHT22;8173;48.354;9.248;2023-02-28T02:41:19;-3.70;99.90
16136;DHT22;8173;48.354;9.248;2023-02-28T02:43:52;-3.80;99.90
16136;DHT22;8173;48.354;9.248;2023-02-28T02:46:23;-3.80;99.90
16136;DHT22;8173;48.354;9.248;2023-02-28T02:48:52;-3.80;99.90
16136;DHT22;8173;48.354;9.248;2023-02-28T02:51:23;-3.80;99.90
16136;DHT22;8173;48.354;9.248;2023-02-28T02:53:52;-3.80;99.90
16136;DHT22;8173;48.354;9.248;2023-02-28T02:56:23;-3.80;99.90
16136;DHT22;8173;48.354;9.248;2023-02-28T02:58:53;-3.80;99.90
16136;DHT22;8173;48.354;9.248;2023-02-28T03:01:23;-3.80;99.90
16136;DHT22;8173;48.354;9.248;2023-02-28T03:03:56;-3.80;99.90
16136;DHT22;8173;48.354;9.248;2023-02-28T03:13:58;-3.90;99.90
16136;DHT22;8173;48.354;9.248;2023-02-28T03:16:33;-3.90;99.90
16136;DHT22;8173;48.354;9.248;2023-02-28T03:19:12;-3.80;99.90
16136;DHT22;8173;48.354;9.248;2023-02-28T03:21:52;-3.80;99.90
16136;DHT22;8173;48.354;9.248;2023-02-28T03:24:27;-3.90;99.90
16136;DHT22;8173;48.354;9.248;2023-02-28T03:27:04;-3.90;99.90
16136;DHT22;8173;48.354;9.248;2023-02-28T03:29:35;-3.90;99.90
16136;DHT22;8173;48.354;9.248;2023-02-28T03:32:08;-3.80;99.90
16136;DHT22;8173;48.354;9.248;2023-02-28T03:34:43;-3.80;99.90
16136;DHT22;8173;48.354;9.248;2023-02-28T03:37:19;-3.70;99.90
16136;DHT22;8173;48.354;9.248;2023-02-28T03:39:51;-3.80;99.90
16136;DHT22;8173;48.354;9.248;2023-02-28T03:42:22;-3.80;99.90
16136;DHT22;8173;48.354;9.248;2023-02-28T03:44:54;-3.70;99.90
16136;DHT22;8173;48.354;9.248;2023-02-28T03:47:25;-3.80;99.90
16136;DHT22;8173;48.354;9.248;2023-02-28T03:49:56;-3.70;99.90
16136;DHT22;8173;48.354;9.248;2023-02-28T03:52:28;-3.70;99.90
16136;DHT22;8173;48.354;9.248;2023-02-28T03:55:15;-3.70;99.90
16136;DHT22;8173;48.354;9.248;2023-02-28T03:58:04;-3.70;99.90
16136;DHT22;8173;48.354;9.248;2023-02-28T04:00:55;-3.90;99.90
16136;DHT22;8173;48.354;9.248;2023-02-28T04:03:28;-3.90;99.90
16136;DHT22;8173;48.354;9.248;2023-02-28T04:06:17;-3.90;99.90
16136;DHT22;8173;48.354;9.248;2023-02-28T04:08:50;-3.90;99.90
16136;DHT22;8173;48.354;9.248;2023-02-28T04:11:40;-3.80;99.90
16136;DHT22;8173;48.354;9.248;2023-02-28T04:14:08;-3.80;99.90
16136;DHT22;8173;48.354;9.248;2023-02-28T04:16:37;-3.80;99.90
16136;DHT22;8173;48.354;9.248;2023-02-28T04:19:04;-3.80;99.90
16136;DHT22;8173;48.354;9.248;2023-02-28T04:21:33;-3.80;99.90
16136;DHT22;8173;48.354;9.248;2023-02-28T04:24:02;-3.90;99.90
16136;DHT22;8173;48.354;9.248;2023-02-28T04:26:29;-3.90;99.90
16136;DHT22;8173;48.354;9.248;2023-02-28T04:28:57;-3.90;99.90
16136;DHT22;8173;48.354;9.248;2023-02-28T04:31:24;-3.90;99.90
16136;DHT22;8173;48.354;9.248;2023-02-28T04:33:51;-3.90;99.90
16136;DHT22;8173;48.354;9.248;2023-02-28T04:36:18;-4.00;99.90
16136;DHT22;8173;48.354;9.248;2023-02-28T04:38:45;-4.00;99.90
16136;DHT22;8173;48.354;9.248;2023-02-28T04:41:18;-4.00;99.90
16136;DHT22;8173;48.354;9.248;2023-02-28T04:43:58;-4.00;99.90
16136;DHT22;8173;48.354;9.248;2023-02-28T04:46:37;-3.90;99.90
16136;DHT22;8173;48.354;9.248;2023-02-28T04:49:04;-3.90;99.90
16136;DHT22;8173;48.354;9.248;2023-02-28T04:51:46;-3.90;99.90
16136;DHT22;8173;48.354;9.248;2023-02-28T04:54:18;-3.90;99.90
16136;DHT22;8173;48.354;9.248;2023-02-28T04:56:49;-3.90;99.90
16136;DHT22;8173;48.354;9.248;2023-02-28T04:59:37;-3.90;99.90
16136;DHT22;8173;48.354;9.248;2023-02-28T05:02:04;-4.00;99.90
16136;DHT22;8173;48.354;9.248;2023-02-28T05:04:32;-3.90;99.90
16136;DHT22;8173;48.354;9.248;2023-02-28T05:07:02;-4.00;99.90
16136;DHT22;8173;48.354;9.248;2023-02-28T05:09:37;-3.90;99.90
16136;DHT22;8173;48.354;9.248;2023-02-28T05:12:11;-4.00;99.90
16136;DHT22;8173;48.354;9.248;2023-02-28T05:14:45;-3.90;99.90
16136;DHT22;8173;48.354;9.248;2023-02-28T05:17:12;-3.90;99.90
16136;DHT22;8173;48.354;9.248;2023-02-28T05:19:39;-3.80;99.90
16136;DHT22;8173;48.354;9.248;2023-02-28T05:22:13;-3.80;99.90
16136;DHT22;8173;48.354;9.248;2023-02-28T05:24:40;-3.80;99.90
16136;DHT22;8173;48.354;9.248;2023-02-28T05:27:10;-3.80;99.90
16136;DHT22;8173;48.354;9.248;2023-02-28T05:29:37;-3.80;99.90
16136;DHT22;8173;48.354;9.248;2023-02-28T05:32:09;-3.80;99.90
16136;DHT22;8173;48.354;9.248;2023-02-28T05:34:39;-3.80;99.90
16136;DHT22;8173;48.354;9.248;2023-02-28T05:37:14;-3.80;99.90
16136;DHT22;8173;48.354;9.248;2023-02-28T05:39:56;-3.80;99.90
16136;DHT22;8173;48.354;9.248;2023-02-28T05:42:46;-3.90;99.90
16136;DHT22;8173;48.354;9.248;2023-02-28T05:45:19;-3.80;99.90
16136;DHT22;8173;48.354;9.248;2023-02-28T05:47:49;-3.80;99.90
16136;DHT22;8173;48.354;9.248;2023-02-28T05:50:22;-3.90;99.90
16136;DHT22;8173;48.354;9.248;2023-02-28T05:53:06;-3.90;99.90
16136;DHT22;8173;48.354;9.248;2023-02-28T05:55:32;-3.80;99.90
16136;DHT22;8173;48.354;9.248;2023-02-28T05:58:06;-3.70;99.90
16136;DHT22;8173;48.354;9.248;2023-02-28T06:00:33;-3.70;99.90
16136;DHT22;8173;48.354;9.248;2023-02-28T06:02:59;-3.70;99.90
16136;DHT22;8173;48.354;9.248;2023-02-28T06:05:27;-3.80;99.90
16136;DHT22;8173;48.354;9.248;2023-02-28T06:07:54;-3.80;99.90
16136;DHT22;8173;48.354;9.248;2023-02-28T06:10:21;-3.80;99.90
16136;DHT22;8173;48.354;9.248;2023-02-28T06:13:03;-3.90;99.90
16136;DHT22;8173;48.354;9.248;2023-02-28T06:15:34;-3.90;99.90
16136;DHT22;8173;48.354;9.248;2023-02-28T06:18:06;-3.90;99.90
16136;DHT22;8173;48.354;9.248;2023-02-28T06:23:39;-3.90;99.90
16136;DHT22;8173;48.354;9.248;2023-02-28T06:26:06;-3.80;99.90
16136;DHT22;8173;48.354;9.248;2023-02-28T06:28:33;-3.80;99.90
16136;DHT22;8173;48.354;9.248;2023-02-28T06:31:06;-3.80;99.90
16136;DHT22;8173;48.354;9.248;2023-02-28T06:33:33;-3.80;99.90
16136;DHT22;8173;48.354;9.248;2023-02-28T06:35:59;-3.80;99.90
16136;DHT22;8173;48.354;9.248;2023-02-28T06:38:26;-3.80;99.90
16136;DHT22;8173;48.354;9.248;2023-02-28T06:40:54;-3.90;99.90
16136;DHT22;8173;48.354;9.248;2023-02-28T06:43:21;-3.80;99.90
16136;DHT22;8173;48.354;9.248;2023-02-28T06:45:48;-3.70;99.90
16136;DHT22;8173;48.354;9.248;2023-02-28T06:48:19;-3.80;99.90
16136;DHT22;8173;48.354;9.248;2023-02-28T06:50:49;-3.80;99.90
16136;DHT22;8173;48.354;9.248;2023-02-28T06:53:17;-3.90;99.90
16136;DHT22;8173;48.354;9.248;2023-02-28T06:55:47;-3.80;99.90
16136;DHT22;8173;48.354;9.248;2023-02-28T06:58:16;-3.80;99.90
16136;DHT22;8173;48.354;9.248;2023-02-28T07:00:55;-3.70;99.90
16136;DHT22;8173;48.354;9.248;2023-02-28T07:03:30;-3.70;99.90
16136;DHT22;8173;48.354;9.248;2023-02-28T07:05:58;-3.70;99.90
16136;DHT22;8173;48.354;9.248;2023-02-28T07:08:26;-3.80;99.90
16136;DHT22;8173;48.354;9.248;2023-02-28T07:10:53;-3.70;99.90
16136;DHT22;8173;48.354;9.248;2023-02-28T07:13:20;-3.80;99.90
16136;DHT22;8173;48.354;9.248;2023-02-28T07:15:53;-3.80;99.90
16136;DHT22;8173;48.354;9.248;2023-02-28T07:18:21;-3.80;99.90
16136;DHT22;8173;48.354;9.248;2023-02-28T07:20:49;-3.70;99.90
16136;DHT22;8173;48.354;9.248;2023-02-28T07:23:16;-3.80;99.90
16136;DHT22;8173;48.354;9.248;2023-02-28T07:25:43;-3.70;99.90
16136;DHT22;8173;48.354;9.248;2023-02-28T07:28:11;-3.80;99.90
16136;DHT22;8173;48.354;9.248;2023-02-28T07:30:37;-3.70;99.90
16136;DHT22;8173;48.354;9.248;2023-02-28T07:33:04;-3.70;99.90
16136;DHT22;8173;48.354;9.248;2023-02-28T07:35:31;-3.70;99.90
16136;DHT22;8173;48.354;9.248;2023-02-28T07:38:00;-3.70;99.90
16136;DHT22;8173;48.354;9.248;2023-02-28T07:40:27;-3.80;99.90
16136;DHT22;8173;48.354;9.248;2023-02-28T07:42:53;-3.80;99.90
16136;DHT22;8173;48.354;9.248;2023-02-28T07:45:20;-3.70;99.90
16136;DHT22;8173;48.354;9.248;2023-02-28T07:47:47;-3.70;99.90
16136;DHT22;8173;48.354;9.248;2023-02-28T07:50:15;-3.70;99.90
16136;DHT22;8173;48.354;9.248;2023-02-28T07:52:42;-3.70;99.90
16136;DHT22;8173;48.354;9.248;2023-02-28T07:55:11;-3.60;99.90
16136;DHT22;8173;48.354;9.248;2023-02-28T07:57:39;-3.60;99.90
16136;DHT22;8173;48.354;9.248;2023-02-28T08:00:08;-3.70;99.90
16136;DHT22;8173;48.354;9.248;2023-02-28T08:02:36;-3.70;99.90
16136;DHT22;8173;48.354;9.248;2023-02-28T08:05:03;-3.70;99.90
16136;DHT22;8173;48.354;9.248;2023-02-28T08:07:30;-3.70;99.90
16136;DHT22;8173;48.354;9.248;2023-02-28T08:09:57;-3.70;99.90
16136;DHT22;8173;48.354;9.248;2023-02-28T08:12:26;-3.60;99.90
16136;DHT22;8173;48.354;9.248;2023-02-28T08:14:52;-3.50;99.90
16136;DHT22;8173;48.354;9.248;2023-02-28T08:17:19;-3.40;99.90
16136;DHT22;8173;48.354;9.248;2023-02-28T08:19:46;-3.20;99.90
16136;DHT22;8173;48.354;9.248;2023-02-28T08:22:13;-3.20;99.90
16136;DHT22;8173;48.354;9.248;2023-02-28T08:24:41;-3.20;99.90
16136;DHT22;8173;48.354;9.248;2023-02-28T08:27:09;-3.20;99.90
16136;DHT22;8173;48.354;9.248;2023-02-28T08:29:38;-3.20;99.90
16136;DHT22;8173;48.354;9.248;2023-02-28T08:32:05;-3.10;99.90
16136;DHT22;8173;48.354;9.248;2023-02-28T08:34:31;-3.00;99.90
16136;DHT22;8173;48.354;9.248;2023-02-28T08:36:58;-3.00;99.90
16136;DHT22;8173;48.354;9.248;2023-02-28T08:39:25;-3.00;99.90
16136;DHT22;8173;48.354;9.248;2023-02-28T08:41:52;-2.90;99.90
16136;DHT22;8173;48.354;9.248;2023-02-28T08:44:19;-2.90;99.90
16136;DHT22;8173;48.354;9.248;2023-02-28T08:46:47;-2.90;99.90
16136;DHT22;8173;48.354;9.248;2023-02-28T08:49:13;-2.90;99.90
16136;DHT22;8173;48.354;9.248;2023-02-28T08:51:41;-3.00;99.90
16136;DHT22;8173;48.354;9.248;2023-02-28T08:54:08;-3.00;99.90
16136;DHT22;8173;48.354;9.248;2023-02-28T08:56:38;-2.90;99.90
16136;DHT22;8173;48.354;9.248;2023-02-28T08:59:05;-2.80;99.90
16136;DHT22;8173;48.354;9.248;2023-02-28T09:01:31;-3.00;99.90
16136;DHT22;8173;48.354;9.248;2023-02-28T09:03:59;-3.10;99.90
16136;DHT22;8173;48.354;9.248;2023-02-28T09:08:56;-2.90;99.90
16136;DHT22;8173;48.354;9.248;2023-02-28T09:11:25;-2.70;99.90
16136;DHT22;8173;48.354;9.248;2023-02-28T09:13:51;-2.60;99.90
16136;DHT22;8173;48.354;9.248;2023-02-28T09:16:18;-2.60;99.90
16136;DHT22;8173;48.354;9.248;2023-02-28T09:18:45;-2.70;99.90
16136;DHT22;8173;48.354;9.248;2023-02-28T09:21:15;-2.70;99.90
16136;DHT22;8173;48.354;9.248;2023-02-28T09:23:43;-2.60;99.90
16136;DHT22;8173;48.354;9.248;2023-02-28T09:26:14;-2.60;99.90
16136;DHT22;8173;48.354;9.248;2023-02-28T09:28:41;-2.80;99.90
16136;DHT22;8173;48.354;9.248;2023-02-28T09:31:12;-2.90;99.90
16136;DHT22;8173;48.354;9.248;2023-02-28T09:33:40;-2.80;99.90
16136;DHT22;8173;48.354;9.248;2023-02-28T09:36:07;-2.70;99.90
16136;DHT22;8173;48.354;9.248;2023-02-28T09:38:35;-2.50;99.90
16136;DHT22;8173;48.354;9.248;2023-02-28T09:41:08;-2.60;99.90
16136;DHT22;8173;48.354;9.248;2023-02-28T09:43:39;-2.60;99.90
16136;DHT22;8173;48.354;9.248;2023-02-28T09:46:14;-2.60;99.90
16136;DHT22;8173;48.354;9.248;2023-02-28T09:48:46;-2.50;99.90
16136;DHT22;8173;48.354;9.248;2023-02-28T09:51:26;-2.40;99.90
16136;DHT22;8173;48.354;9.248;2023-02-28T09:53:55;-2.30;99.90
16136;DHT22;8173;48.354;9.248;2023-02-28T09:56:25;-2.20;99.90
16136;DHT22;8173;48.354;9.248;2023-02-28T09:58:56;-2.10;99.90
16136;DHT22;8173;48.354;9.248;2023-02-28T10:01:28;-2.10;99.90
16136;DHT22;8173;48.354;9.248;2023-02-28T10:04:01;-2.00;99.90
16136;DHT22;8173;48.354;9.248;2023-02-28T10:06:33;-2.00;99.90
16136;DHT22;8173;48.354;9.248;2023-02-28T10:09:05;-1.80;99.90
16136;DHT22;8173;48.354;9.248;2023-02-28T10:11:36;-1.80;99.90
16136;DHT22;8173;48.354;9.248;2023-02-28T10:14:10;-1.70;99.90
16136;DHT22;8173;48.354;9.248;2023-02-28T10:16:42;-1.70;99.90
16136;DHT22;8173;48.354;9.248;2023-02-28T10:19:15;-1.70;99.90
16136;DHT22;8173;48.354;9.248;2023-02-28T10:21:46;-1.60;99.90
16136;DHT22;8173;48.354;9.248;2023-02-28T10:24:20;-1.50;99.90
16136;DHT22;8173;48.354;9.248;2023-02-28T10:26:48;-1.80;99.90
16136;DHT22;8173;48.354;9.248;2023-02-28T10:29:15;-1.90;99.90
16136;DHT22;8173;48.354;9.248;2023-02-28T10:31:42;-1.80;99.90
16136;DHT22;8173;48.354;9.248;2023-02-28T10:34:12;-1.60;99.90
16136;DHT22;8173;48.354;9.248;2023-02-28T10:36:39;-1.50;99.90
16136;DHT22;8173;48.354;9.248;2023-02-28T10:39:37;-1.70;99.90
16136;DHT22;8173;48.354;9.248;2023-02-28T10:42:05;-1.70;99.90
16136;DHT22;8173;48.354;9.248;2023-02-28T10:44:44;-1.60;99.90
16136;DHT22;8173;48.354;9.248;2023-02-28T10:47:14;-1.60;99.90
16136;DHT22;8173;48.354;9.248;2023-02-28T10:49:47;-1.60;99.90
16136;DHT22;8173;48.354;9.248;2023-02-28T10:52:14;-1.40;99.90
16136;DHT22;8173;48.354;9.248;2023-02-28T10:55:18;-1.40;99.90
16136;DHT22;8173;48.354;9.248;2023-02-28T10:57:46;-1.10;99.90
16136;DHT22;8173;48.354;9.248;2023-02-28T11:00:15;-1.00;99.90
16136;DHT22;8173;48.354;9.248;2023-02-28T11:02:42;-0.90;99.90
16136;DHT22;8173;48.354;9.248;2023-02-28T11:05:25;-0.90;99.90
16136;DHT22;8173;48.354;9.248;2023-02-28T11:07:53;-1.00;99.90
16136;DHT22;8173;48.354;9.248;2023-02-28T11:10:25;-1.00;99.90
16136;DHT22;8173;48.354;9.248;2023-02-28T11:12:55;-1.00;99.90
16136;DHT22;8173;48.354;9.248;2023-02-28T11:15:25;-0.80;99.90
16136;DHT22;8173;48.354;9.248;2023-02-28T11:17:56;-0.80;99.90
16136;DHT22;8173;48.354;9.248;2023-02-28T11:20:26;-0.50;99.90
16136;DHT22;8173;48.354;9.248;2023-02-28T11:22:54;-0.50;99.90
16136;DHT22;8173;48.354;9.248;2023-02-28T11:25:25;-0.50;99.90
16136;DHT22;8173;48.354;9.248;2023-02-28T11:27:54;-0.20;99.90
16136;DHT22;8173;48.354;9.248;2023-02-28T11:30:27;0.20;99.90
16136;DHT22;8173;48.354;9.248;2023-02-28T11:32:54;0.10;99.90
16136;DHT22;8173;48.354;9.248;2023-02-28T11:35:26;0.30;99.90
16136;DHT22;8173;48.354;9.248;2023-02-28T11:37:55;0.40;99.90
16136;DHT22;8173;48.354;9.248;2023-02-28T11:40:30;0.00;99.90
16136;DHT22;8173;48.354;9.248;2023-02-28T11:43:05;0.10;99.90
16136;DHT22;8173;48.354;9.248;2023-02-28T11:45:46;0.10;99.90
16136;DHT22;8173;48.354;9.248;2023-02-28T11:48:21;-0.10;99.90
16136;DHT22;8173;48.354;9.248;2023-02-28T11:51:00;-0.20;99.90
16136;DHT22;8173;48.354;9.248;2023-02-28T11:53:44;-0.20;99.90
16136;DHT22;8173;48.354;9.248;2023-02-28T11:56:21;-0.10;99.90
16136;DHT22;8173;48.354;9.248;2023-02-28T11:58:55;-0.20;99.90
16136;DHT22;8173;48.354;9.248;2023-02-28T12:01:36;-0.20;99.90
16136;DHT22;8173;48.354;9.248;2023-02-28T12:04:15;-0.10;99.90
16136;DHT22;8173;48.354;9.248;2023-02-28T12:06:47;0.10;99.90
16136;DHT22;8173;48.354;9.248;2023-02-28T12:09:29;0.00;99.90
16136;DHT22;8173;48.354;9.248;2023-02-28T12:12:05;0.10;99.90
16136;DHT22;8173;48.354;9.248;2023-02-28T12:14:47;-0.10;99.90
16136;DHT22;8173;48.354;9.248;2023-02-28T12:17:25;-0.10;99.90
16136;DHT22;8173;48.354;9.248;2023-02-28T12:19:59;-0.40;99.90
16136;DHT22;8173;48.354;9.248;2023-02-28T12:22:30;0.50;99.90
16136;DHT22;8173;48.354;9.248;2023-02-28T12:25:20;-0.30;99.90
16136;DHT22;8173;48.354;9.248;2023-02-28T12:27:51;0.50;99.90
16136;DHT22;8173;48.354;9.248;2023-02-28T12:30:22;1.00;99.90
16136;DHT22;8173;48.354;9.248;2023-02-28T12:32:54;1.40;99.90
16136;DHT22;8173;48.354;9.248;2023-02-28T12:35:25;1.80;99.90
16136;DHT22;8173;48.354;9.248;2023-02-28T12:37:57;1.70;99.90
16136;DHT22;8173;48.354;9.248;2023-02-28T12:40:41;2.10;99.90
16136;DHT22;8173;48.354;9.248;2023-02-28T12:43:11;2.60;99.90
16136;DHT22;8173;48.354;9.248;2023-02-28T12:45:41;2.60;99.90
16136;DHT22;8173;48.354;9.248;2023-02-28T12:48:13;2.50;99.90
16136;DHT22;8173;48.354;9.248;2023-02-28T12:50:42;2.40;99.90
16136;DHT22;8173;48.354;9.248;2023-02-28T12:53:13;2.10;99.90
16136;DHT22;8173;48.354;9.248;2023-02-28T12:55:45;2.30;99.90
16136;DHT22;8173;48.354;9.248;2023-02-28T12:58:20;2.90;99.90
16136;DHT22;8173;48.354;9.248;2023-02-28T13:01:08;3.40;99.90
16136;DHT22;8173;48.354;9.248;2023-02-28T13:04:15;4.10;99.90
16136;DHT22;8173;48.354;9.248;2023-02-28T13:07:06;4.30;99.90
16136;DHT22;8173;48.354;9.248;2023-02-28T13:09:34;3.90;99.90
16136;DHT22;8173;48.354;9.248;2023-02-28T13:12:01;4.00;99.90
16136;DHT22;8173;48.354;9.248;2023-02-28T13:14:39;3.80;99.90
16136;DHT22;8173;48.354;9.248;2023-02-28T13:17:11;3.80;99.90
16136;DHT22;8173;48.354;9.248;2023-02-28T13:19:41;3.70;99.90
16136;DHT22;8173;48.354;9.248;2023-02-28T13:22:17;3.50;99.90
16136;DHT22;8173;48.354;9.248;2023-02-28T13:24:46;3.10;99.90
16136;DHT22;8173;48.354;9.248;2023-02-28T13:27:32;3.00;99.90
16136;DHT22;8173;48.354;9.248;2023-02-28T13:30:01;2.80;99.90
16136;DHT22;8173;48.354;9.248;2023-02-28T13:32:33;3.00;99.90
16136;DHT22;8173;48.354;9.248;2023-02-28T13:35:36;3.50;99.90
16136;DHT22;8173;48.354;9.248;2023-02-28T13:38:22;3.60;99.90
16136;DHT22;8173;48.354;9.248;2023-02-28T13:40:49;3.50;99.90
16136;DHT22;8173;48.354;9.248;2023-02-28T13:43:17;3.50;99.90
16136;DHT22;8173;48.354;9.248;2023-02-28T13:46:10;3.40;99.90
16136;DHT22;8173;48.354;9.248;2023-02-28T13:48:37;2.90;99.90
16136;DHT22;8173;48.354;9.248;2023-02-28T13:54:35;2.50;99.90
16136;DHT22;8173;48.354;9.248;2023-02-28T13:57:17;2.40;99.90
16136;DHT22;8173;48.354;9.248;2023-02-28T13:59:52;2.40;99.90
16136;DHT22;8173;48.354;9.248;2023-02-28T14:02:43;2.60;99.90
16136;DHT22;8173;48.354;9.248;2023-02-28T14:05:14;2.30;99.90
16136;DHT22;8173;48.354;9.248;2023-02-28T14:07:45;2.30;99.90
16136;DHT22;8173;48.354;9.248;2023-02-28T14:10:26;2.50;99.90
16136;DHT22;8173;48.354;9.248;2023-02-28T14:12:55;2.40;99.90
16136;DHT22;8173;48.354;9.248;2023-02-28T14:18:30;3.10;99.90
16136;DHT22;8173;48.354;9.248;2023-02-28T14:21:04;2.90;99.90
16136;DHT22;8173;48.354;9.248;2023-02-28T14:23:46;2.90;99.90
16136;DHT22;8173;48.354;9.248;2023-02-28T14:26:29;2.90;99.90
16136;DHT22;8173;48.354;9.248;2023-02-28T14:29:13;3.10;99.90
16136;DHT22;8173;48.354;9.248;2023-02-28T14:31:45;3.50;99.90
16136;DHT22;8173;48.354;9.248;2023-02-28T14:34:31;3.40;99.90
16136;DHT22;8173;48.354;9.248;2023-02-28T14:37:02;3.20;99.90
16136;DHT22;8173;48.354;9.248;2023-02-28T14:39:30;3.20;99.90
16136;DHT22;8173;48.354;9.248;2023-02-28T14:41:58;3.30;99.90
16136;DHT22;8173;48.354;9.248;2023-02-28T14:44:28;3.10;99.90
16136;DHT22;8173;48.354;9.248;2023-02-28T14:46:56;3.20;99.90
16136;DHT22;8173;48.354;9.248;2023-02-28T14:49:27;3.60;99.90
16136;DHT22;8173;48.354;9.248;2023-02-28T14:52:07;3.60;99.90
16136;DHT22;8173;48.354;9.248;2023-02-28T14:54:36;3.40;99.90
16136;DHT22;8173;48.354;9.248;2023-02-28T14:57:04;3.20;99.90
16136;DHT22;8173;48.354;9.248;2023-02-28T14:59:33;3.10;99.90
16136;DHT22;8173;48.354;9.248;2023-02-28T15:02:29;3.40;99.90
16136;DHT22;8173;48.354;9.248;2023-02-28T15:07:26;3.30;99.90
16136;DHT22;8173;48.354;9.248;2023-02-28T15:10:10;3.30;99.90
16136;DHT22;8173;48.354;9.248;2023-02-28T15:12:37;3.30;99.90
16136;DHT22;8173;48.354;9.248;2023-02-28T15:15:13;3.20;99.90
16136;DHT22;8173;48.354;9.248;2023-02-28T15:17:42;3.00;99.90
16136;DHT22;8173;48.354;9.248;2023-02-28T15:20:12;2.90;99.90
16136;DHT22;8173;48.354;9.248;2023-02-28T15:22:41;2.60;99.90
16136;DHT22;8173;48.354;9.248;2023-02-28T15:25:13;2.30;99.90
16136;DHT22;8173;48.354;9.248;2023-02-28T15:27:45;2.20;99.90
16136;DHT22;8173;48.354;9.248;2023-02-28T15:30:17;2.00;99.90
16136;DHT22;8173;48.354;9.248;2023-02-28T15:32:44;1.80;99.90
16136;DHT22;8173;48.354;9.248;2023-02-28T15:35:20;1.70;99.90
16136;DHT22;8173;48.354;9.248;2023-02-28T15:37:53;1.60;99.90
16136;DHT22;8173;48.354;9.248;2023-02-28T15:40:25;1.60;99.90
16136;DHT22;8173;48.354;9.248;2023-02-28T15:43:00;1.50;99.90
16136;DHT22;8173;48.354;9.248;2023-02-28T15:45:34;1.50;99.90
16136;DHT22;8173;48.354;9.248;2023-02-28T15:48:04;1.30;99.90
16136;DHT22;8173;48.354;9.248;2023-02-28T15:50:31;1.20;99.90
16136;DHT22;8173;48.354;9.248;2023-02-28T15:53:00;1.20;99.90
16136;DHT22;8173;48.354;9.248;2023-02-28T15:55:29;1.20;99.90
16136;DHT22;8173;48.354;9.248;2023-02-28T15:57:59;1.20;99.90
16136;DHT22;8173;48.354;9.248;2023-02-28T16:00:28;1.10;99.90
16136;DHT22;8173;48.354;9.248;2023-02-28T16:02:58;1.20;99.90
16136;DHT22;8173;48.354;9.248;2023-02-28T16:05:26;1.20;99.90
16136;DHT22;8173;48.354;9.248;2023-02-28T16:08:00;1.20;99.90
16136;DHT22;8173;48.354;9.248;2023-02-28T16:10:28;1.20;99.90
16136;DHT22;8173;48.354;9.248;2023-02-28T16:12:56;1.20;99.90
16136;DHT22;8173;48.354;9.248;2023-02-28T16:15:25;1.10;99.90
16136;DHT22;8173;48.354;9.248;2023-02-28T16:17:52;1.00;99.90
16136;DHT22;8173;48.354;9.248;2023-02-28T16:20:21;0.90;99.90
16136;DHT22;8173;48.354;9.248;2023-02-28T16:22:48;0.80;99.90
16136;DHT22;8173;48.354;9.248;2023-02-28T16:25:18;0.70;99.90
16136;DHT22;8173;48.354;9.248;2023-02-28T16:27:48;0.60;99.90
16136;DHT22;8173;48.354;9.248;2023-02-28T16:30:19;0.50;99.90
16136;DHT22;8173;48.354;9.248;2023-02-28T16:32:46;0.50;99.90
16136;DHT22;8173;48.354;9.248;2023-02-28T16:35:13;0.40;99.90
16136;DHT22;8173;48.354;9.248;2023-02-28T16:37:40;0.40;99.90
16136;DHT22;8173;48.354;9.248;2023-02-28T16:40:09;0.30;99.90
16136;DHT22;8173;48.354;9.248;2023-02-28T16:42:40;0.30;99.90